sensor_id;sensor_type;location;lat;lon;timestamp;temperature;humidity
29803;DHT22;16702;50.898;4.662;2023-01-28T00:01:34;6.10;99.90
29803;DHT22;16702;50.898;4.662;2023-01-28T00:04:04;6.10;99.90
29803;DHT22;16702;50.898;4.662;2023-01-28T00:06:35;6.10;99.90
29803;DHT22;16702;50.898;4.662;2023-01-28T00:09:05;6.00;99.90
29803;DHT22;16702;50.898;4.662;2023-01-28T00:11:38;6.00;99.90
29803;DHT22;16702;50.898;4.662;2023-01-28T00:14:10;6.00;99.90
29803;DHT22;16702;50.898;4.662;2023-01-28T00:16:40;6.10;99.90
29803;DHT22;16702;50.898;4.662;2023-01-28T00:19:10;6.00;99.90
29803;DHT22;16702;50.898;4.662;2023-01-28T00:21:41;6.10;99.90
29803;DHT22;16702;50.898;4.662;2023-01-28T00:24:11;6.20;99.90
29803;DHT22;16702;50.898;4.662;2023-01-28T00:26:45;6.00;99.90
29803;DHT22;16702;50.898;4.662;2023-01-28T00:29:15;6.00;99.90
29803;DHT22;16702;50.898;4.662;2023-01-28T00:31:45;6.10;99.90
29803;DHT22;16702;50.898;4.662;2023-01-28T00:34:16;6.10;99.90
29803;DHT22;16702;50.898;4.662;2023-01-28T00:36:47;6.00;99.90
29803;DHT22;16702;50.898;4.662;2023-01-28T00:39:24;6.00;99.90
29803;DHT22;16702;50.898;4.662;2023-01-28T00:41:57;6.00;99.90
29803;DHT22;16702;50.898;4.662;2023-01-28T00:44:27;6.00;99.90
29803;DHT22;16702;50.898;4.662;2023-01-28T00:46:57;6.00;99.90
29803;DHT22;16702;50.898;4.662;2023-01-28T00:49:28;6.00;99.90
29803;DHT22;16702;50.898;4.662;2023-01-28T00:51:58;6.00;99.90
29803;DHT22;16702;50.898;4.662;2023-01-28T00:54:29;6.00;99.90
29803;DHT22;16702;50.898;4.662;2023-01-28T00:57:02;6.00;99.90
29803;DHT22;16702;50.898;4.662;2023-01-28T00:59:33;6.00;99.90
29803;DHT22;16702;50.898;4.662;2023-01-28T01:02:04;6.00;99.90
29803;DHT22;16702;50.898;4.662;2023-01-28T01:04:41;6.00;99.90
29803;DHT22;16702;50.898;4.662;2023-01-28T01:07:26;6.10;99.90
29803;DHT22;16702;50.898;4.662;2023-01-28T01:10:10;6.00;99.90
29803;DHT22;16702;50.898;4.662;2023-01-28T01:12:45;6.00;99.90
29803;DHT22;16702;50.898;4.662;2023-01-28T01:15:16;6.00;99.90
29803;DHT22;16702;50.898;4.662;2023-01-28T01:17:48;6.10;99.90
29803;DHT22;16702;50.898;4.662;2023-01-28T01:20:21;6.00;99.90
29803;DHT22;16702;50.898;4.662;2023-01-28T01:22:52;6.00;99.90
29803;DHT22;16702;50.898;4.662;2023-01-28T01:25:23;6.00;99.90
29803;DHT22;16702;50.898;4.662;2023-01-28T01:27:55;6.10;99.90
29803;DHT22;16702;50.898;4.662;2023-01-28T01:30:26;6.00;99.90
29803;DHT22;16702;50.898;4.662;2023-01-28T01:32:56;6.10;99.90
29803;DHT22;16702;50.898;4.662;2023-01-28T01:35:27;6.00;99.90
29803;DHT22;16702;50.898;4.662;2023-01-28T01:37:57;6.00;99.90
29803;DHT22;16702;50.898;4.662;2023-01-28T01:40:28;6.00;99.90
29803;DHT22;16702;50.898;4.662;2023-01-28T01:43:13;6.00;99.90
29803;DHT22;16702;50.898;4.662;2023-01-28T01:45:46;6.00;99.90
29803;DHT22;16702;50.898;4.662;2023-01-28T01:48:21;6.00;99.90
29803;DHT22;16702;50.898;4.662;2023-01-28T01:50:54;6.00;99.90
29803;DHT22;16702;50.898;4.662;2023-01-28T01:53:27;6.00;99.90
29803;DHT22;16702;50.898;4.662;2023-01-28T01:56:05;6.00;99.90
29803;DHT22;16702;50.898;4.662;2023-01-28T01:58:42;6.00;99.90
29803;DHT22;16702;50.898;4.662;2023-01-28T02:01:13;6.00;99.90
29803;DHT22;16702;50.898;4.662;2023-01-28T02:03:50;5.90;99.90
29803;DHT22;16702;50.898;4.662;2023-01-28T02:06:22;6.00;99.90
29803;DHT22;16702;50.898;4.662;2023-01-28T02:08:54;6.00;99.90
29803;DHT22;16702;50.898;4.662;2023-01-28T02:11:26;6.00;99.90
29803;DHT22;16702;50.898;4.662;2023-01-28T02:14:02;6.00;99.90
29803;DHT22;16702;50.898;4.662;2023-01-28T02:16:34;6.10;99.90
29803;DHT22;16702;50.898;4.662;2023-01-28T02:19:05;5.90;99.90
29803;DHT22;16702;50.898;4.662;2023-01-28T02:22:14;5.90;99.90
29803;DHT22;16702;50.898;4.662;2023-01-28T02:28:16;6.00;99.90
29803;DHT22;16702;50.898;4.662;2023-01-28T02:30:52;6.00;99.90
29803;DHT22;16702;50.898;4.662;2023-01-28T02:33:29;5.90;99.90
29803;DHT22;16702;50.898;4.662;2023-01-28T02:36:12;6.00;99.90
29803;DHT22;16702;50.898;4.662;2023-01-28T02:38:47;6.00;99.90
29803;DHT22;16702;50.898;4.662;2023-01-28T02:41:24;6.00;99.90
29803;DHT22;16702;50.898;4.662;2023-01-28T02:44:01;5.90;99.90
29803;DHT22;16702;50.898;4.662;2023-01-28T02:46:36;5.90;99.90
29803;DHT22;16702;50.898;4.662;2023-01-28T02:49:22;5.90;99.90
29803;DHT22;16702;50.898;4.662;2023-01-28T02:52:24;5.90;99.90
29803;DHT22;16702;50.898;4.662;2023-01-28T02:55:17;5.90;99.90
29803;DHT22;16702;50.898;4.662;2023-01-28T02:57:59;5.90;99.90
29803;DHT22;16702;50.898;4.662;2023-01-28T03:00:43;6.00;99.90
29803;DHT22;16702;50.898;4.662;2023-01-28T03:03:20;5.90;99.90
29803;DHT22;16702;50.898;4.662;2023-01-28T03:05:55;5.90;99.90
29803;DHT22;16702;50.898;4.662;2023-01-28T03:08:36;6.00;99.90
29803;DHT22;16702;50.898;4.662;2023-01-28T03:11:20;6.00;99.90
29803;DHT22;16702;50.898;4.662;2023-01-28T03:14:03;5.90;99.90
29803;DHT22;16702;50.898;4.662;2023-01-28T03:16:49;5.90;99.90
29803;DHT22;16702;50.898;4.662;2023-01-28T03:19:33;5.80;99.90
29803;DHT22;16702;50.898;4.662;2023-01-28T03:22:16;5.90;99.90
29803;DHT22;16702;50.898;4.662;2023-01-28T03:25:02;5.90;99.90
29803;DHT22;16702;50.898;4.662;2023-01-28T03:27:51;5.90;99.90
29803;DHT22;16702;50.898;4.662;2023-01-28T03:30:39;5.90;99.90
29803;DHT22;16702;50.898;4.662;2023-01-28T03:33:37;5.90;99.90
29803;DHT22;16702;50.898;4.662;2023-01-28T03:36:21;5.80;99.90
29803;DHT22;16702;50.898;4.662;2023-01-28T03:39:05;5.80;99.90
29803;DHT22;16702;50.898;4.662;2023-01-28T03:41:36;5.80;99.90
29803;DHT22;16702;50.898;4.662;2023-01-28T03:44:06;5.80;99.90
29803;DHT22;16702;50.898;4.662;2023-01-28T03:46:51;5.80;99.90
29803;DHT22;16702;50.898;4.662;2023-01-28T03:49:24;5.70;99.90
29803;DHT22;16702;50.898;4.662;2023-01-28T03:51:54;5.80;99.90
29803;DHT22;16702;50.898;4.662;2023-01-28T03:54:24;5.80;99.90
29803;DHT22;16702;50.898;4.662;2023-01-28T03:56:55;5.80;99.90
29803;DHT22;16702;50.898;4.662;2023-01-28T03:59:25;5.80;99.90
29803;DHT22;16702;50.898;4.662;2023-01-28T04:01:56;5.70;99.90
29803;DHT22;16702;50.898;4.662;2023-01-28T04:04:29;5.70;99.90
29803;DHT22;16702;50.898;4.662;2023-01-28T04:07:00;5.80;99.90
29803;DHT22;16702;50.898;4.662;2023-01-28T04:09:57;5.70;99.90
29803;DHT22;16702;50.898;4.662;2023-01-28T04:12:46;5.70;99.90
29803;DHT22;16702;50.898;4.662;2023-01-28T04:15:20;5.80;99.90
29803;DHT22;16702;50.898;4.662;2023-01-28T04:17:52;5.70;99.90
29803;DHT22;16702;50.898;4.662;2023-01-28T04:20:29;5.70;99.90
29803;DHT22;16702;50.898;4.662;2023-01-28T04:23:00;5.70;99.90
29803;DHT22;16702;50.898;4.662;2023-01-28T04:25:31;5.70;99.90
29803;DHT22;16702;50.898;4.662;2023-01-28T04:28:05;5.70;99.90
29803;DHT22;16702;50.898;4.662;2023-01-28T04:30:35;5.70;99.90
29803;DHT22;16702;50.898;4.662;2023-01-28T04:33:12;5.70;99.90
29803;DHT22;16702;50.898;4.662;2023-01-28T04:35:56;5.60;99.90
29803;DHT22;16702;50.898;4.662;2023-01-28T04:38:33;5.70;99.90
29803;DHT22;16702;50.898;4.662;2023-01-28T04:41:07;5.80;99.90
29803;DHT22;16702;50.898;4.662;2023-01-28T04:43:37;5.70;99.90
29803;DHT22;16702;50.898;4.662;2023-01-28T04:46:26;5.70;99.90
29803;DHT22;16702;50.898;4.662;2023-01-28T04:49:23;5.70;99.90
29803;DHT22;16702;50.898;4.662;2023-01-28T04:52:20;5.70;99.90
29803;DHT22;16702;50.898;4.662;2023-01-28T04:54:58;5.70;99.90
29803;DHT22;16702;50.898;4.662;2023-01-28T04:57:29;5.80;99.90
29803;DHT22;16702;50.898;4.662;2023-01-28T05:00:00;5.70;99.90
29803;DHT22;16702;50.898;4.662;2023-01-28T05:02:31;5.70;99.90
29803;DHT22;16702;50.898;4.662;2023-01-28T05:05:02;5.60;99.90
29803;DHT22;16702;50.898;4.662;2023-01-28T05:08:00;5.70;99.90
29803;DHT22;16702;50.898;4.662;2023-01-28T05:10:31;5.70;99.90
29803;DHT22;16702;50.898;4.662;2023-01-28T05:13:01;5.70;99.90
29803;DHT22;16702;50.898;4.662;2023-01-28T05:15:32;5.70;99.90
29803;DHT22;16702;50.898;4.662;2023-01-28T05:18:02;5.60;99.90
29803;DHT22;16702;50.898;4.662;2023-01-28T05:20:38;5.60;99.90
29803;DHT22;16702;50.898;4.662;2023-01-28T05:23:11;5.70;99.90
29803;DHT22;16702;50.898;4.662;2023-01-28T05:25:49;5.50;99.90
29803;DHT22;16702;50.898;4.662;2023-01-28T05:28:20;5.50;99.90
29803;DHT22;16702;50.898;4.662;2023-01-28T05:30:50;5.50;99.90
29803;DHT22;16702;50.898;4.662;2023-01-28T05:33:21;5.50;99.90
29803;DHT22;16702;50.898;4.662;2023-01-28T05:35:51;5.50;99.90
29803;DHT22;16702;50.898;4.662;2023-01-28T05:38:25;5.40;99.90
29803;DHT22;16702;50.898;4.662;2023-01-28T05:40:56;5.40;99.90
29803;DHT22;16702;50.898;4.662;2023-01-28T05:43:26;5.40;99.90
29803;DHT22;16702;50.898;4.662;2023-01-28T05:46:15;5.50;99.90
29803;DHT22;16702;50.898;4.662;2023-01-28T05:49:05;5.30;99.90
29803;DHT22;16702;50.898;4.662;2023-01-28T05:51:57;5.40;99.90
29803;DHT22;16702;50.898;4.662;2023-01-28T05:54:32;5.30;99.90
29803;DHT22;16702;50.898;4.662;2023-01-28T05:57:03;5.30;99.90
29803;DHT22;16702;50.898;4.662;2023-01-28T05:59:33;5.40;99.90
29803;DHT22;16702;50.898;4.662;2023-01-28T06:02:04;5.40;99.90
29803;DHT22;16702;50.898;4.662;2023-01-28T06:04:35;5.50;99.90
29803;DHT22;16702;50.898;4.662;2023-01-28T06:07:06;5.40;99.90
29803;DHT22;16702;50.898;4.662;2023-01-28T06:09:44;5.50;99.90
29803;DHT22;16702;50.898;4.662;2023-01-28T06:12:19;5.50;99.90
29803;DHT22;16702;50.898;4.662;2023-01-28T06:15:10;5.50;99.90
29803;DHT22;16702;50.898;4.662;2023-01-28T06:17:58;5.50;99.90
29803;DHT22;16702;50.898;4.662;2023-01-28T06:20:32;5.40;99.90
29803;DHT22;16702;50.898;4.662;2023-01-28T06:23:03;5.40;99.90
29803;DHT22;16702;50.898;4.662;2023-01-28T06:25:36;5.30;99.90
29803;DHT22;16702;50.898;4.662;2023-01-28T06:28:10;5.30;99.90
29803;DHT22;16702;50.898;4.662;2023-01-28T06:30:40;5.30;99.90
29803;DHT22;16702;50.898;4.662;2023-01-28T06:33:11;5.50;99.90
29803;DHT22;16702;50.898;4.662;2023-01-28T06:35:41;5.30;99.90
29803;DHT22;16702;50.898;4.662;2023-01-28T06:38:12;5.40;99.90
29803;DHT22;16702;50.898;4.662;2023-01-28T06:40:50;5.30;99.90
29803;DHT22;16702;50.898;4.662;2023-01-28T06:43:22;5.30;99.90
29803;DHT22;16702;50.898;4.662;2023-01-28T06:45:54;5.30;99.90
29803;DHT22;16702;50.898;4.662;2023-01-28T06:48:25;5.30;99.90
29803;DHT22;16702;50.898;4.662;2023-01-28T06:50:56;5.40;99.90
29803;DHT22;16702;50.898;4.662;2023-01-28T06:53:26;5.30;99.90
29803;DHT22;16702;50.898;4.662;2023-01-28T06:55:59;5.40;99.90
29803;DHT22;16702;50.898;4.662;2023-01-28T06:58:30;5.40;99.90
29803;DHT22;16702;50.898;4.662;2023-01-28T07:01:00;5.40;99.90
29803;DHT22;16702;50.898;4.662;2023-01-28T07:03:30;5.40;99.90
29803;DHT22;16702;50.898;4.662;2023-01-28T07:06:01;5.30;99.90
29803;DHT22;16702;50.898;4.662;2023-01-28T07:08:31;5.40;99.90
29803;DHT22;16702;50.898;4.662;2023-01-28T07:11:06;5.20;99.90
29803;DHT22;16702;50.898;4.662;2023-01-28T07:13:37;5.10;99.90
29803;DHT22;16702;50.898;4.662;2023-01-28T07:16:07;5.10;99.90
29803;DHT22;16702;50.898;4.662;2023-01-28T07:18:38;5.20;99.90
29803;DHT22;16702;50.898;4.662;2023-01-28T07:21:08;5.10;99.90
29803;DHT22;16702;50.898;4.662;2023-01-28T07:23:38;5.10;99.90
29803;DHT22;16702;50.898;4.662;2023-01-28T07:26:11;5.10;99.90
29803;DHT22;16702;50.898;4.662;2023-01-28T07:28:42;5.10;99.90
29803;DHT22;16702;50.898;4.662;2023-01-28T07:31:12;5.20;99.90
29803;DHT22;16702;50.898;4.662;2023-01-28T07:33:43;5.10;99.90
29803;DHT22;16702;50.898;4.662;2023-01-28T07:36:13;5.10;99.90
29803;DHT22;16702;50.898;4.662;2023-01-28T07:38:44;5.20;99.90
29803;DHT22;16702;50.898;4.662;2023-01-28T07:41:17;5.20;99.90
29803;DHT22;16702;50.898;4.662;2023-01-28T07:43:47;5.20;99.90
29803;DHT22;16702;50.898;4.662;2023-01-28T07:46:17;5.10;99.90
29803;DHT22;16702;50.898;4.662;2023-01-28T07:48:48;5.10;99.90
29803;DHT22;16702;50.898;4.662;2023-01-28T07:51:18;5.00;99.90
29803;DHT22;16702;50.898;4.662;2023-01-28T07:53:49;5.00;99.90
29803;DHT22;16702;50.898;4.662;2023-01-28T07:56:22;5.00;99.90
29803;DHT22;16702;50.898;4.662;2023-01-28T07:58:55;5.00;99.90
29803;DHT22;16702;50.898;4.662;2023-01-28T08:01:26;5.00;99.90
29803;DHT22;16702;50.898;4.662;2023-01-28T08:03:56;5.10;99.90
29803;DHT22;16702;50.898;4.662;2023-01-28T08:06:27;5.00;99.90
29803;DHT22;16702;50.898;4.662;2023-01-28T08:09:04;5.00;99.90
29803;DHT22;16702;50.898;4.662;2023-01-28T08:11:38;4.90;99.90
29803;DHT22;16702;50.898;4.662;2023-01-28T08:14:09;4.90;99.90
29803;DHT22;16702;50.898;4.662;2023-01-28T08:16:40;4.80;99.90
29803;DHT22;16702;50.898;4.662;2023-01-28T08:19:10;4.90;99.90
29803;DHT22;16702;50.898;4.662;2023-01-28T08:21:40;4.90;99.90
29803;DHT22;16702;50.898;4.662;2023-01-28T08:24:11;4.90;99.90
29803;DHT22;16702;50.898;4.662;2023-01-28T08:26:47;4.90;99.90
29803;DHT22;16702;50.898;4.662;2023-01-28T08:29:17;4.80;99.90
29803;DHT22;16702;50.898;4.662;2023-01-28T08:31:48;4.90;99.90
29803;DHT22;16702;50.898;4.662;2023-01-28T08:34:18;4.90;99.90
29803;DHT22;16702;50.898;4.662;2023-01-28T08:36:48;4.90;99.90
29803;DHT22;16702;50.898;4.662;2023-01-28T08:39:19;5.00;99.90
29803;DHT22;16702;50.898;4.662;2023-01-28T08:41:52;5.00;99.90
29803;DHT22;16702;50.898;4.662;2023-01-28T08:44:22;5.00;99.90
29803;DHT22;16702;50.898;4.662;2023-01-28T08:46:53;5.00;99.90
29803;DHT22;16702;50.898;4.662;2023-01-28T08:49:23;5.00;99.90
29803;DHT22;16702;50.898;4.662;2023-01-28T08:51:54;5.00;99.90
29803;DHT22;16702;50.898;4.662;2023-01-28T08:54:24;5.00;99.90
29803;DHT22;16702;50.898;4.662;2023-01-28T08:56:57;4.90;99.90
29803;DHT22;16702;50.898;4.662;2023-01-28T08:59:28;4.90;99.90
29803;DHT22;16702;50.898;4.662;2023-01-28T09:01:58;4.80;99.90
29803;DHT22;16702;50.898;4.662;2023-01-28T09:04:28;4.80;99.90
29803;DHT22;16702;50.898;4.662;2023-01-28T09:06:59;4.80;99.90
29803;DHT22;16702;50.898;4.662;2023-01-28T09:09:29;4.90;99.90
29803;DHT22;16702;50.898;4.662;2023-01-28T09:12:03;4.80;99.90
29803;DHT22;16702;50.898;4.662;2023-01-28T09:14:34;4.80;99.90
29803;DHT22;16702;50.898;4.662;2023-01-28T09:17:05;4.70;99.90
29803;DHT22;16702;50.898;4.662;2023-01-28T09:19:35;4.70;99.90
29803;DHT22;16702;50.898;4.662;2023-01-28T09:22:05;4.70;99.90
29803;DHT22;16702;50.898;4.662;2023-01-28T09:24:36;4.80;99.90
29803;DHT22;16702;50.898;4.662;2023-01-28T09:27:09;4.80;99.90
29803;DHT22;16702;50.898;4.662;2023-01-28T09:29:39;4.80;99.90
29803;DHT22;16702;50.898;4.662;2023-01-28T09:32:10;4.90;99.90
29803;DHT22;16702;50.898;4.662;2023-01-28T09:34:40;4.90;99.90
29803;DHT22;16702;50.898;4.662;2023-01-28T09:37:10;4.80;99.90
29803;DHT22;16702;50.898;4.662;2023-01-28T09:39:41;5.00;99.90
29803;DHT22;16702;50.898;4.662;2023-01-28T09:42:30;4.80;99.90
29803;DHT22;16702;50.898;4.662;2023-01-28T09:45:05;4.80;99.90
29803;DHT22;16702;50.898;4.662;2023-01-28T09:47:40;4.80;99.90
29803;DHT22;16702;50.898;4.662;2023-01-28T09:50:15;4.80;99.90
29803;DHT22;16702;50.898;4.662;2023-01-28T09:52:47;4.70;99.90
29803;DHT22;16702;50.898;4.662;2023-01-28T09:55:23;4.80;99.90
29803;DHT22;16702;50.898;4.662;2023-01-28T09:57:57;4.80;99.90
29803;DHT22;16702;50.898;4.662;2023-01-28T10:00:32;4.80;99.90
29803;DHT22;16702;50.898;4.662;2023-01-28T10:03:27;4.80;99.90
29803;DHT22;16702;50.898;4.662;2023-01-28T10:06:09;4.80;99.90
29803;DHT22;16702;50.898;4.662;2023-01-28T10:12:03;4.70;99.90
29803;DHT22;16702;50.898;4.662;2023-01-28T10:14:48;4.80;99.90
29803;DHT22;16702;50.898;4.662;2023-01-28T10:17:24;4.80;99.90
29803;DHT22;16702;50.898;4.662;2023-01-28T10:19:58;4.90;99.90
29803;DHT22;16702;50.898;4.662;2023-01-28T10:22:34;4.90;99.90
29803;DHT22;16702;50.898;4.662;2023-01-28T10:25:16;4.80;99.90
29803;DHT22;16702;50.898;4.662;2023-01-28T10:27:50;4.90;99.90
29803;DHT22;16702;50.898;4.662;2023-01-28T10:30:26;4.90;99.90
29803;DHT22;16702;50.898;4.662;2023-01-28T10:33:00;4.80;99.90
29803;DHT22;16702;50.898;4.662;2023-01-28T10:35:36;4.90;99.90
29803;DHT22;16702;50.898;4.662;2023-01-28T10:38:12;4.90;99.90
29803;DHT22;16702;50.898;4.662;2023-01-28T10:40:44;4.80;99.90
29803;DHT22;16702;50.898;4.662;2023-01-28T10:43:17;4.80;99.90
29803;DHT22;16702;50.898;4.662;2023-01-28T10:45:56;4.80;99.90
29803;DHT22;16702;50.898;4.662;2023-01-28T10:48:29;4.70;99.90
29803;DHT22;16702;50.898;4.662;2023-01-28T10:51:04;4.70;99.90
29803;DHT22;16702;50.898;4.662;2023-01-28T10:53:36;4.70;99.90
29803;DHT22;16702;50.898;4.662;2023-01-28T10:56:08;4.70;99.90
29803;DHT22;16702;50.898;4.662;2023-01-28T10:58:49;4.60;99.90
29803;DHT22;16702;50.898;4.662;2023-01-28T11:01:38;4.60;99.90
29803;DHT22;16702;50.898;4.662;2023-01-28T11:04:21;4.70;99.90
29803;DHT22;16702;50.898;4.662;2023-01-28T11:06:53;4.80;99.90
29803;DHT22;16702;50.898;4.662;2023-01-28T11:09:26;4.80;99.90
29803;DHT22;16702;50.898;4.662;2023-01-28T11:11:57;4.80;99.90
29803;DHT22;16702;50.898;4.662;2023-01-28T11:14:27;4.90;99.90
29803;DHT22;16702;50.898;4.662;2023-01-28T11:17:00;4.80;99.90
29803;DHT22;16702;50.898;4.662;2023-01-28T11:19:34;4.80;99.90
29803;DHT22;16702;50.898;4.662;2023-01-28T11:22:05;4.90;99.90
29803;DHT22;16702;50.898;4.662;2023-01-28T11:24:35;4.80;99.90
29803;DHT22;16702;50.898;4.662;2023-01-28T11:27:11;4.80;99.90
29803;DHT22;16702;50.898;4.662;2023-01-28T11:29:42;5.10;99.90
29803;DHT22;16702;50.898;4.662;2023-01-28T11:32:20;5.00;99.90
29803;DHT22;16702;50.898;4.662;2023-01-28T11:34:55;5.00;99.90
29803;DHT22;16702;50.898;4.662;2023-01-28T11:37:27;5.00;99.90
29803;DHT22;16702;50.898;4.662;2023-01-28T11:40:15;5.00;99.90
29803;DHT22;16702;50.898;4.662;2023-01-28T11:42:50;4.90;99.90
29803;DHT22;16702;50.898;4.662;2023-01-28T11:45:32;5.00;99.90
29803;DHT22;16702;50.898;4.662;2023-01-28T11:48:18;4.90;99.90
29803;DHT22;16702;50.898;4.662;2023-01-28T11:50:57;4.90;99.90
29803;DHT22;16702;50.898;4.662;2023-01-28T11:53:45;4.80;99.90
29803;DHT22;16702;50.898;4.662;2023-01-28T12:02:32;4.90;99.90
29803;DHT22;16702;50.898;4.662;2023-01-28T12:05:16;5.00;99.90
29803;DHT22;16702;50.898;4.662;2023-01-28T12:07:55;4.90;99.90
29803;DHT22;16702;50.898;4.662;2023-01-28T12:10:33;4.90;99.90
29803;DHT22;16702;50.898;4.662;2023-01-28T12:13:30;4.90;99.90
29803;DHT22;16702;50.898;4.662;2023-01-28T12:16:33;5.00;99.90
29803;DHT22;16702;50.898;4.662;2023-01-28T12:19:31;5.00;99.90
29803;DHT22;16702;50.898;4.662;2023-01-28T12:22:14;4.90;99.90
29803;DHT22;16702;50.898;4.662;2023-01-28T12:25:02;5.00;99.90
29803;DHT22;16702;50.898;4.662;2023-01-28T12:27:49;5.10;99.90
29803;DHT22;16702;50.898;4.662;2023-01-28T12:30:32;5.10;99.90
29803;DHT22;16702;50.898;4.662;2023-01-28T12:33:30;5.20;99.90
29803;DHT22;16702;50.898;4.662;2023-01-28T12:36:20;5.30;99.90
29803;DHT22;16702;50.898;4.662;2023-01-28T12:39:03;5.20;99.90
29803;DHT22;16702;50.898;4.662;2023-01-28T12:41:41;5.30;99.90
29803;DHT22;16702;50.898;4.662;2023-01-28T12:44:19;5.30;99.90
29803;DHT22;16702;50.898;4.662;2023-01-28T12:46:54;5.30;99.90
29803;DHT22;16702;50.898;4.662;2023-01-28T12:49:29;5.40;99.90
29803;DHT22;16702;50.898;4.662;2023-01-28T12:52:04;5.60;99.90
29803;DHT22;16702;50.898;4.662;2023-01-28T12:54:47;5.70;99.90
29803;DHT22;16702;50.898;4.662;2023-01-28T12:57:25;5.70;99.90
29803;DHT22;16702;50.898;4.662;2023-01-28T13:00:03;5.90;99.90
29803;DHT22;16702;50.898;4.662;2023-01-28T13:02:39;5.90;99.90
29803;DHT22;16702;50.898;4.662;2023-01-28T13:05:13;5.70;99.90
29803;DHT22;16702;50.898;4.662;2023-01-28T13:07:48;5.70;99.90
29803;DHT22;16702;50.898;4.662;2023-01-28T13:10:27;5.80;99.90
29803;DHT22;16702;50.898;4.662;2023-01-28T13:12:58;5.90;99.90
29803;DHT22;16702;50.898;4.662;2023-01-28T13:15:29;5.90;99.90
29803;DHT22;16702;50.898;4.662;2023-01-28T13:18:02;5.80;99.90
29803;DHT22;16702;50.898;4.662;2023-01-28T13:20:37;5.80;99.90
29803;DHT22;16702;50.898;4.662;2023-01-28T13:23:22;5.80;99.90
29803;DHT22;16702;50.898;4.662;2023-01-28T13:25:55;6.00;99.90
29803;DHT22;16702;50.898;4.662;2023-01-28T13:28:28;5.90;99.90
29803;DHT22;16702;50.898;4.662;2023-01-28T13:31:03;5.90;99.90
29803;DHT22;16702;50.898;4.662;2023-01-28T13:33:37;6.00;99.90
29803;DHT22;16702;50.898;4.662;2023-01-28T13:36:20;6.00;99.90
29803;DHT22;16702;50.898;4.662;2023-01-28T13:39:00;6.00;99.90
29803;DHT22;16702;50.898;4.662;2023-01-28T13:41:42;6.00;99.90
29803;DHT22;16702;50.898;4.662;2023-01-28T13:44:18;6.00;99.90
29803;DHT22;16702;50.898;4.662;2023-01-28T13:46:50;6.00;99.90
29803;DHT22;16702;50.898;4.662;2023-01-28T13:49:25;6.10;99.90
29803;DHT22;16702;50.898;4.662;2023-01-28T13:52:00;6.10;99.90
29803;DHT22;16702;50.898;4.662;2023-01-28T13:54:35;6.10;99.90
29803;DHT22;16702;50.898;4.662;2023-01-28T13:57:28;5.90;99.90
29803;DHT22;16702;50.898;4.662;2023-01-28T14:00:22;5.90;99.90
29803;DHT22;16702;50.898;4.662;2023-01-28T14:15:41;5.90;99.90
29803;DHT22;16702;50.898;4.662;2023-01-28T14:18:25;5.90;99.90
29803;DHT22;16702;50.898;4.662;2023-01-28T14:21:00;5.90;99.90
29803;DHT22;16702;50.898;4.662;2023-01-28T14:26:37;5.90;99.90
29803;DHT22;16702;50.898;4.662;2023-01-28T14:29:20;5.90;99.90
29803;DHT22;16702;50.898;4.662;2023-01-28T14:31:53;5.90;99.90
29803;DHT22;16702;50.898;4.662;2023-01-28T14:34:27;6.00;99.90
29803;DHT22;16702;50.898;4.662;2023-01-28T14:37:00;6.00;99.90
29803;DHT22;16702;50.898;4.662;2023-01-28T14:39:37;6.00;99.90
29803;DHT22;16702;50.898;4.662;2023-01-28T14:42:15;6.10;99.90
29803;DHT22;16702;50.898;4.662;2023-01-28T14:44:56;6.00;99.90
29803;DHT22;16702;50.898;4.662;2023-01-28T14:47:42;6.00;99.90
29803;DHT22;16702;50.898;4.662;2023-01-28T14:50:34;5.90;99.90
29803;DHT22;16702;50.898;4.662;2023-01-28T14:53:25;5.90;99.90
29803;DHT22;16702;50.898;4.662;2023-01-28T14:56:02;5.90;99.90
29803;DHT22;16702;50.898;4.662;2023-01-28T14:58:38;5.90;99.90
29803;DHT22;16702;50.898;4.662;2023-01-28T15:01:23;6.00;99.90
29803;DHT22;16702;50.898;4.662;2023-01-28T15:03:53;5.90;99.90
29803;DHT22;16702;50.898;4.662;2023-01-28T15:06:29;5.80;99.90
29803;DHT22;16702;50.898;4.662;2023-01-28T15:09:06;5.90;99.90
29803;DHT22;16702;50.898;4.662;2023-01-28T15:11:38;5.80;99.90
29803;DHT22;16702;50.898;4.662;2023-01-28T15:14:15;5.90;99.90
29803;DHT22;16702;50.898;4.662;2023-01-28T15:16:50;5.90;99.90
29803;DHT22;16702;50.898;4.662;2023-01-28T15:19:25;5.80;99.90
29803;DHT22;16702;50.898;4.662;2023-01-28T15:21:58;5.80;99.90
29803;DHT22;16702;50.898;4.662;2023-01-28T15:24:30;5.80;99.90
29803;DHT22;16702;50.898;4.662;2023-01-28T15:27:02;5.70;99.90
29803;DHT22;16702;50.898;4.662;2023-01-28T15:29:35;5.80;99.90
29803;DHT22;16702;50.898;4.662;2023-01-28T15:32:22;5.70;99.90
29803;DHT22;16702;50.898;4.662;2023-01-28T15:34:53;5.70;99.90
29803;DHT22;16702;50.898;4.662;2023-01-28T15:37:24;5.80;99.90
29803;DHT22;16702;50.898;4.662;2023-01-28T15:40:01;5.80;99.90
29803;DHT22;16702;50.898;4.662;2023-01-28T15:42:35;5.70;99.90
29803;DHT22;16702;50.898;4.662;2023-01-28T15:45:15;5.70;99.90
29803;DHT22;16702;50.898;4.662;2023-01-28T15:47:50;5.70;99.90
29803;DHT22;16702;50.898;4.662;2023-01-28T15:50:23;5.70;99.90
29803;DHT22;16702;50.898;4.662;2023-01-28T15:52:54;5.60;99.90
29803;DHT22;16702;50.898;4.662;2023-01-28T15:55:34;5.60;99.90
29803;DHT22;16702;50.898;4.662;2023-01-28T15:58:25;5.60;99.90
29803;DHT22;16702;50.898;4.662;2023-01-28T16:03:46;5.60;99.90
29803;DHT22;16702;50.898;4.662;2023-01-28T16:06:18;5.60;99.90
29803;DHT22;16702;50.898;4.662;2023-01-28T16:08:53;5.50;99.90
29803;DHT22;16702;50.898;4.662;2023-01-28T16:11:27;5.50;99.90
29803;DHT22;16702;50.898;4.662;2023-01-28T16:14:00;5.50;99.90
29803;DHT22;16702;50.898;4.662;2023-01-28T16:16:33;5.40;99.90
29803;DHT22;16702;50.898;4.662;2023-01-28T16:19:07;5.40;99.90
29803;DHT22;16702;50.898;4.662;2023-01-28T16:21:43;5.40;99.90
29803;DHT22;16702;50.898;4.662;2023-01-28T16:24:23;5.50;99.90
29803;DHT22;16702;50.898;4.662;2023-01-28T16:27:00;5.60;99.90
29803;DHT22;16702;50.898;4.662;2023-01-28T16:29:31;5.40;99.90
29803;DHT22;16702;50.898;4.662;2023-01-28T16:32:03;5.30;99.90
29803;DHT22;16702;50.898;4.662;2023-01-28T16:34:36;5.40;99.90
29803;DHT22;16702;50.898;4.662;2023-01-28T16:37:09;5.40;99.90
29803;DHT22;16702;50.898;4.662;2023-01-28T16:39:40;5.40;99.90
29803;DHT22;16702;50.898;4.662;2023-01-28T16:42:11;5.30;99.90
29803;DHT22;16702;50.898;4.662;2023-01-28T16:44:41;5.40;99.90
29803;DHT22;16702;50.898;4.662;2023-01-28T16:47:12;5.40;99.90
29803;DHT22;16702;50.898;4.662;2023-01-28T16:49:45;5.40;99.90
29803;DHT22;16702;50.898;4.662;2023-01-28T16:52:16;5.30;99.90
29803;DHT22;16702;50.898;4.662;2023-01-28T16:54:47;5.40;99.90
29803;DHT22;16702;50.898;4.662;2023-01-28T16:57:19;5.50;99.90
29803;DHT22;16702;50.898;4.662;2023-01-28T16:59:52;5.50;99.90
29803;DHT22;16702;50.898;4.662;2023-01-28T17:02:23;5.50;99.90
29803;DHT22;16702;50.898;4.662;2023-01-28T17:04:56;5.40;99.90
29803;DHT22;16702;50.898;4.662;2023-01-28T17:07:27;5.50;99.90
29803;DHT22;16702;50.898;4.662;2023-01-28T17:09:57;5.50;99.90